createdAt,value
2023-03-27T00:01:24.301Z,95.40
2023-03-27T00:03:51.663Z,94.80
2023-03-27T00:06:19.807Z,94.70
2023-03-27T00:08:47.652Z,94.60
2023-03-27T00:11:14.936Z,94.90
2023-03-27T00:13:49.376Z,94.80
2023-03-27T00:16:18.575Z,94.80
2023-03-27T00:18:45.902Z,95.00
2023-03-27T00:21:12.765Z,94.60
2023-03-27T00:23:40.554Z,94.40
2023-03-27T00:26:07.499Z,94.50
2023-03-27T00:28:35.562Z,94.50
2023-03-27T00:31:02.697Z,94.70
2023-03-27T00:33:29.826Z,94.70
2023-03-27T00:35:56.695Z,94.40
2023-03-27T00:38:24.383Z,94.70
2023-03-27T00:40:54.399Z,94.70
2023-03-27T00:43:28.883Z,94.90
2023-03-27T00:45:58.203Z,95.00
2023-03-27T00:48:25.394Z,94.70
2023-03-27T00:50:53.107Z,94.90
2023-03-27T00:53:24.951Z,95.20
2023-03-27T00:55:54.960Z,95.20
2023-03-27T00:58:28.235Z,95.00
2023-03-27T01:00:56.441Z,95.50
2023-03-27T01:03:29.535Z,95.50
2023-03-27T01:05:57.737Z,95.70
2023-03-27T01:08:25.538Z,95.90
2023-03-27T01:10:52.271Z,95.70
2023-03-27T01:13:27.058Z,96.00
2023-03-27T01:16:09.884Z,96.00
2023-03-27T01:18:36.644Z,96.70
2023-03-27T01:21:13.655Z,96.90
2023-03-27T01:23:59.634Z,96.80
2023-03-27T01:26:48.909Z,96.60
2023-03-27T01:29:34.485Z,96.80
2023-03-27T01:32:01.167Z,97.00
2023-03-27T01:35:01.086Z,96.50
2023-03-27T01:37:41.311Z,96.00
2023-03-27T01:40:18.421Z,96.50
2023-03-27T01:42:50.910Z,96.30
2023-03-27T01:45:23.874Z,97.50
2023-03-27T01:48:00.363Z,96.50
2023-03-27T01:50:47.746Z,96.50
2023-03-27T01:53:23.142Z,96.40
2023-03-27T01:55:52.461Z,96.60
2023-03-27T01:58:21.693Z,96.30
2023-03-27T02:01:04.078Z,96.70
2023-03-27T02:03:33.729Z,96.40
2023-03-27T02:06:04.393Z,96.30
2023-03-27T02:08:35.825Z,96.30
2023-03-27T02:11:04.610Z,96.10
2023-03-27T02:13:34.379Z,96.30
2023-03-27T02:16:02.332Z,96.40
2023-03-27T02:18:31.573Z,96.50
2023-03-27T02:20:58.484Z,96.40
2023-03-27T02:23:25.408Z,96.00
2023-03-27T02:25:54.331Z,95.70
2023-03-27T02:28:35.151Z,95.90
2023-03-27T02:31:32.801Z,95.50
2023-03-27T02:34:26.049Z,95.30
2023-03-27T02:37:17.580Z,95.40
2023-03-27T02:39:59.764Z,95.40
2023-03-27T02:43:04.213Z,95.10
2023-03-27T02:45:51.654Z,95.70
2023-03-27T02:48:43.290Z,95.30
2023-03-27T02:51:30.781Z,95.70
2023-03-27T02:54:08.323Z,95.90
2023-03-27T02:56:43.602Z,94.90
2023-03-27T02:59:28.710Z,95.10
2023-03-27T03:01:55.700Z,95.70
2023-03-27T03:04:31.098Z,95.30
2023-03-27T03:06:59.118Z,95.30
2023-03-27T03:09:27.367Z,95.70
2023-03-27T03:11:54.624Z,95.30
2023-03-27T03:14:44.105Z,95.20
2023-03-27T03:17:15.076Z,95.20
2023-03-27T03:19:42.044Z,95.30
2023-03-27T03:22:08.877Z,95.50
2023-03-27T03:24:35.751Z,95.30
2023-03-27T03:27:05.795Z,95.20
2023-03-27T03:29:35.554Z,94.70
2023-03-27T03:32:03.200Z,95.40
2023-03-27T03:34:30.517Z,94.80
2023-03-27T03:36:57.225Z,95.00
2023-03-27T03:39:23.949Z,94.70
2023-03-27T03:41:50.931Z,94.90
2023-03-27T03:44:17.940Z,94.70
2023-03-27T03:46:44.783Z,95.30
2023-03-27T03:49:11.594Z,95.30
2023-03-27T03:51:38.487Z,95.40
2023-03-27T03:54:06.739Z,95.20
2023-03-27T03:56:34.532Z,95.20
2023-03-27T03:59:01.655Z,94.60
2023-03-27T04:01:28.749Z,94.40
2023-03-27T04:03:56.397Z,94.70
2023-03-27T04:06:26.080Z,94.60
2023-03-27T04:08:53.490Z,94.70
2023-03-27T04:11:20.663Z,93.70
2023-03-27T04:13:47.488Z,93.90
2023-03-27T04:16:14.884Z,93.40
2023-03-27T04:18:42.568Z,94.00
2023-03-27T04:21:14.593Z,93.30
2023-03-27T04:23:42.709Z,93.10
2023-03-27T04:26:12.288Z,92.90
2023-03-27T04:28:40.132Z,93.50
2023-03-27T04:31:10.405Z,94.00
2023-03-27T04:33:39.883Z,93.70
2023-03-27T04:36:08.488Z,91.90
2023-03-27T04:38:37.078Z,91.20
2023-03-27T04:41:05.147Z,90.30
2023-03-27T04:43:32.188Z,89.90
2023-03-27T04:45:58.987Z,90.30
2023-03-27T04:48:26.670Z,89.70
2023-03-27T04:50:53.678Z,89.40
2023-03-27T04:53:20.585Z,89.80
2023-03-27T04:55:51.167Z,90.00
2023-03-27T04:58:19.104Z,89.20
2023-03-27T05:00:50.291Z,89.30
2023-03-27T05:03:20.865Z,89.40
2023-03-27T05:05:49.694Z,88.40
2023-03-27T05:08:17.296Z,88.70
2023-03-27T05:10:44.926Z,87.30
2023-03-27T05:13:12.336Z,86.40
2023-03-27T05:15:39.358Z,86.70
2023-03-27T05:18:07.497Z,86.00
2023-03-27T05:20:35.349Z,85.20
2023-03-27T05:23:02.528Z,85.00
2023-03-27T05:25:30.954Z,84.90
2023-03-27T05:27:58.128Z,84.10
2023-03-27T05:30:26.870Z,84.40
2023-03-27T05:32:54.195Z,84.50
2023-03-27T05:35:23.889Z,84.20
2023-03-27T05:37:54.023Z,84.40
2023-03-27T05:40:25.014Z,84.40
2023-03-27T05:42:53.309Z,83.20
2023-03-27T05:45:21.181Z,84.00
2023-03-27T05:47:50.658Z,84.30
2023-03-27T05:50:20.087Z,84.00
2023-03-27T05:52:47.749Z,84.10
2023-03-27T05:55:15.192Z,84.90
2023-03-27T05:57:42.532Z,85.00
2023-03-27T06:00:13.987Z,84.00
2023-03-27T06:02:43.389Z,84.20
2023-03-27T06:05:13.457Z,83.50
2023-03-27T06:07:42.982Z,83.80
2023-03-27T06:10:13.727Z,84.50
2023-03-27T06:12:41.847Z,83.70
2023-03-27T06:15:09.503Z,84.10
2023-03-27T06:17:38.366Z,83.80
2023-03-27T06:20:12.594Z,84.20
2023-03-27T06:22:42.225Z,83.00
2023-03-27T06:25:09.068Z,83.10
2023-03-27T06:27:35.939Z,81.20
2023-03-27T06:30:02.812Z,82.10
2023-03-27T06:32:29.643Z,81.20
2023-03-27T06:34:56.517Z,80.80
2023-03-27T06:37:25.121Z,81.00
2023-03-27T06:39:52.112Z,81.00
2023-03-27T06:42:18.818Z,81.60
2023-03-27T06:44:45.579Z,80.10
2023-03-27T06:47:12.886Z,78.20
2023-03-27T06:49:39.797Z,78.30
2023-03-27T06:52:06.963Z,77.10
2023-03-27T09:16:11.160Z,70.10
2023-03-27T09:18:54.712Z,70.00
2023-03-27T09:21:27.228Z,69.70
2023-03-27T09:23:55.309Z,70.20
2023-03-27T09:26:34.734Z,67.40
2023-03-27T09:29:01.740Z,68.30
2023-03-27T09:31:33.665Z,66.20
2023-03-27T09:34:07.578Z,66.00
2023-03-27T09:36:35.863Z,69.20
2023-03-27T09:39:05.858Z,67.10
2023-03-27T09:41:35.052Z,70.10
2023-03-27T09:44:06.128Z,70.10
2023-03-27T09:46:34.871Z,70.40
2023-03-27T09:49:15.124Z,73.10
2023-03-27T09:51:51.994Z,76.30
2023-03-27T09:54:23.137Z,77.50
2023-03-27T09:56:53.310Z,79.10
2023-03-27T09:59:30.780Z,78.60
2023-03-27T10:01:58.544Z,77.80
2023-03-27T10:04:26.290Z,76.70
2023-03-27T10:07:01.614Z,75.40
2023-03-27T10:09:28.712Z,76.00
2023-03-27T10:12:07.906Z,76.00
2023-03-27T10:14:42.271Z,72.90
2023-03-27T10:17:26.143Z,73.20
2023-03-27T10:19:56.046Z,71.40
2023-03-27T10:22:30.999Z,68.50
2023-03-27T10:25:01.127Z,66.50
2023-03-27T10:27:33.250Z,59.40
2023-03-27T10:29:59.940Z,56.70
2023-03-27T10:32:46.582Z,57.00
2023-03-27T10:35:23.945Z,60.40
2023-03-27T10:37:51.468Z,61.60
2023-03-27T10:40:19.537Z,63.60
2023-03-27T10:42:47.013Z,65.70
2023-03-27T10:45:20.605Z,66.10
2023-03-27T10:47:59.255Z,65.80
2023-03-27T10:50:53.373Z,67.10
2023-03-27T10:53:25.941Z,68.20
2023-03-27T10:56:10.805Z,66.80
2023-03-27T10:58:37.468Z,66.40
2023-03-27T11:01:23.474Z,65.80
2023-03-27T11:03:53.162Z,65.40
2023-03-27T11:06:23.131Z,64.90
2023-03-27T11:08:56.495Z,64.60
2023-03-27T11:11:27.084Z,66.20
2023-03-27T11:13:54.409Z,66.80
2023-03-27T11:16:27.296Z,67.10
2023-03-27T11:18:53.991Z,66.90
2023-03-27T11:21:34.794Z,67.20
2023-03-27T11:24:03.899Z,67.00
2023-03-27T11:26:33.853Z,65.70
2023-03-27T11:29:09.553Z,64.10
2023-03-27T11:31:46.026Z,60.80
2023-03-27T11:34:29.025Z,58.20
2023-03-27T11:36:59.695Z,55.60
2023-03-27T11:39:42.162Z,55.20
2023-03-27T11:42:17.180Z,58.10
2023-03-27T11:44:43.977Z,59.70
2023-03-27T11:47:17.017Z,63.70
2023-03-27T11:49:53.576Z,67.10
2023-03-27T11:52:30.752Z,69.80
2023-03-27T11:55:20.294Z,73.10
2023-03-27T11:58:05.872Z,73.70
2023-03-27T12:00:36.432Z,73.60
2023-03-27T12:03:15.547Z,72.90
2023-03-27T12:05:56.632Z,72.20
2023-03-27T12:08:52.607Z,69.90
2023-03-27T12:11:20.480Z,71.00
2023-03-27T12:14:00.554Z,70.20
2023-03-27T12:16:47.634Z,71.30
2023-03-27T12:19:38.594Z,69.80
2023-03-27T12:22:24.978Z,69.80
2023-03-27T12:25:00.490Z,69.30
2023-03-27T12:27:27.622Z,68.60
2023-03-27T12:29:54.380Z,69.30
2023-03-27T12:32:39.891Z,69.10
2023-03-27T12:35:11.531Z,67.70
2023-03-27T12:37:42.199Z,69.50
2023-03-27T12:40:27.988Z,69.80
2023-03-27T12:43:02.993Z,69.20
2023-03-27T12:45:29.763Z,68.70
2023-03-27T12:48:11.557Z,68.40
2023-03-27T12:50:41.944Z,67.00
2023-03-27T12:53:21.196Z,65.90
2023-03-27T12:55:47.971Z,67.60
2023-03-27T12:58:30.294Z,65.30
2023-03-27T13:01:00.884Z,64.80
2023-03-27T13:03:31.147Z,65.30
2023-03-27T13:06:23.819Z,64.60
2023-03-27T13:09:14.776Z,65.30
2023-03-27T13:12:04.888Z,67.00
2023-03-27T13:14:46.677Z,67.50
2023-03-27T13:17:42.132Z,68.90
2023-03-27T13:20:25.835Z,69.40
2023-03-27T13:23:09.607Z,68.90
2023-03-27T13:25:39.175Z,69.20
2023-03-27T13:28:20.351Z,70.90
2023-03-27T13:30:51.654Z,71.50
2023-03-27T13:33:30.554Z,72.00
2023-03-27T13:35:57.450Z,71.70
2023-03-27T13:38:43.311Z,72.90
2023-03-27T13:41:29.525Z,74.60
2023-03-27T13:43:58.096Z,75.30
2023-03-27T13:46:29.406Z,74.70
2023-03-27T13:49:21.109Z,75.90
2023-03-27T13:52:24.592Z,73.90
2023-03-27T13:55:04.291Z,71.50
2023-03-27T13:57:36.753Z,67.30
2023-03-27T14:00:18.351Z,66.40
2023-03-27T14:03:10.063Z,65.10
2023-03-27T14:06:13.194Z,64.00
2023-03-27T14:08:55.415Z,62.90
2023-03-27T14:11:37.844Z,64.30
2023-03-27T14:14:32.754Z,63.20
2023-03-27T14:17:14.513Z,63.10
2023-03-27T14:19:47.105Z,64.70
2023-03-27T14:22:32.274Z,65.40
2023-03-27T14:25:09.813Z,65.40
2023-03-27T14:27:36.795Z,66.90
2023-03-27T14:30:15.657Z,65.00
2023-03-27T14:32:44.634Z,66.50
2023-03-27T14:35:23.977Z,68.70
2023-03-27T14:38:23.346Z,66.60
2023-03-27T14:40:52.409Z,67.80
2023-03-27T14:43:21.234Z,67.60
2023-03-27T14:45:51.674Z,69.90
2023-03-27T14:48:38.921Z,70.90
2023-03-27T14:51:14.617Z,70.90
2023-03-27T14:53:45.656Z,72.60
2023-03-27T14:56:22.069Z,72.40
2023-03-27T14:58:50.698Z,71.40
2023-03-27T15:01:17.969Z,70.10
2023-03-27T15:03:45.974Z,69.50
2023-03-27T15:06:21.050Z,70.30
2023-03-27T15:08:52.207Z,70.40
2023-03-27T15:11:23.225Z,70.10
2023-03-27T15:13:50.088Z,72.30
2023-03-27T15:16:20.213Z,72.30
2023-03-27T15:18:58.707Z,71.10
2023-03-27T15:21:49.485Z,72.10
2023-03-27T15:24:44.135Z,71.90
2023-03-27T15:27:20.109Z,71.90
2023-03-27T15:29:58.554Z,71.20
2023-03-27T15:32:30.286Z,70.00
2023-03-27T15:35:03.352Z,69.40
2023-03-27T15:37:33.177Z,69.40
2023-03-27T15:40:58.648Z,69.00
2023-03-27T15:43:29.196Z,70.70
2023-03-27T15:46:07.658Z,71.30
2023-03-27T15:48:40.777Z,70.20
2023-03-27T15:51:20.529Z,70.30
2023-03-27T15:53:53.718Z,71.40
2023-03-27T15:56:28.450Z,71.00
2023-03-27T15:59:04.885Z,70.90
2023-03-27T16:01:37.290Z,70.50
2023-03-27T16:04:27.917Z,70.20
2023-03-27T16:07:06.282Z,72.70
2023-03-27T16:10:05.292Z,71.90
2023-03-27T16:12:48.362Z,69.90
2023-03-27T16:15:56.118Z,68.70
2023-03-27T16:18:28.909Z,68.30
2023-03-27T16:21:06.869Z,68.90
2023-03-27T16:23:33.658Z,68.40
2023-03-27T16:26:01.334Z,68.30
2023-03-27T16:28:29.825Z,68.20
2023-03-27T16:30:58.075Z,68.10
2023-03-27T16:33:27.480Z,68.70
2023-03-27T16:35:56.230Z,67.60
2023-03-27T16:38:23.525Z,67.60
2023-03-27T16:40:50.377Z,65.80
2023-03-27T16:43:17.130Z,67.40
2023-03-27T16:45:44.889Z,66.70
2023-03-27T16:48:13.504Z,66.40
2023-03-27T16:50:41.524Z,66.40
2023-03-27T16:53:08.429Z,66.00
2023-03-27T16:55:35.325Z,67.40
2023-03-27T16:58:02.436Z,66.60
2023-03-27T17:00:29.145Z,66.30
2023-03-27T17:02:55.976Z,66.20
2023-03-27T17:05:22.836Z,65.70
2023-03-27T17:07:51.256Z,66.20
2023-03-27T17:10:18.242Z,66.10
2023-03-27T17:12:45.000Z,65.90
2023-03-27T17:15:11.798Z,65.70
2023-03-27T17:17:38.568Z,65.10
2023-03-27T17:20:07.676Z,67.60
2023-03-27T17:22:34.517Z,67.20
2023-03-27T17:25:02.631Z,65.30
2023-03-27T17:27:29.447Z,67.30
2023-03-27T17:29:56.570Z,64.80
2023-03-27T17:32:24.315Z,67.00
2023-03-27T17:34:52.204Z,65.00
2023-03-27T17:37:19.998Z,65.10
2023-03-27T17:39:47.074Z,65.50
2023-03-27T17:42:13.887Z,66.20
2023-03-27T17:44:41.498Z,65.60
2023-03-27T17:47:08.491Z,64.80
2023-03-27T17:49:35.343Z,65.90
2023-03-27T17:52:07.736Z,65.30
2023-03-27T17:54:34.713Z,66.80
2023-03-27T17:57:01.892Z,68.00
2023-03-27T17:59:30.434Z,67.30
2023-03-27T18:01:57.580Z,67.40
2023-03-27T18:04:24.575Z,67.00
2023-03-27T18:06:51.634Z,68.00
2023-03-27T18:09:18.551Z,68.20
2023-03-27T18:11:46.070Z,68.70
2023-03-27T18:14:12.845Z,69.00
2023-03-27T18:16:39.587Z,68.20
2023-03-27T18:19:06.591Z,69.10
2023-03-27T18:21:33.393Z,70.50
2023-03-27T18:24:00.338Z,69.90
2023-03-27T18:26:27.249Z,70.60
2023-03-27T18:28:55.217Z,70.00
2023-03-27T18:31:22.072Z,71.80
2023-03-27T18:33:49.044Z,71.90
2023-03-27T18:36:16.103Z,72.60
2023-03-27T18:38:43.146Z,73.60
2023-03-27T18:41:10.565Z,72.90
2023-03-27T18:43:38.510Z,73.00
2023-03-27T18:46:07.186Z,72.30
2023-03-27T18:48:34.301Z,73.30
2023-03-27T18:51:05.022Z,74.60
2023-03-27T18:53:31.986Z,74.30
2023-03-27T18:55:59.650Z,74.70
2023-03-27T18:58:28.170Z,74.20
2023-03-27T19:00:58.317Z,75.70
2023-03-27T19:03:30.362Z,75.90
2023-03-27T19:06:01.752Z,76.10
2023-03-27T19:08:28.797Z,75.50
2023-03-27T19:10:57.346Z,77.20
2023-03-27T19:13:25.469Z,76.10
2023-03-27T19:15:52.706Z,77.50
2023-03-27T19:18:19.644Z,77.30
2023-03-27T19:20:46.868Z,76.80
2023-03-27T19:23:14.333Z,77.30
2023-03-27T19:25:41.265Z,77.30
2023-03-27T19:28:08.100Z,77.20
2023-03-27T19:30:35.397Z,77.10
2023-03-27T19:33:02.466Z,77.80
2023-03-27T19:35:29.379Z,77.70
2023-03-27T19:37:56.219Z,77.40
2023-03-27T19:40:23.620Z,77.90
2023-03-27T19:42:50.926Z,78.50
2023-03-27T19:45:19.081Z,78.50
2023-03-27T19:47:47.765Z,78.30
2023-03-27T19:50:16.058Z,79.10
2023-03-27T19:52:49.404Z,78.80
2023-03-27T19:55:25.431Z,79.70
2023-03-27T19:57:54.851Z,79.80
2023-03-27T20:00:21.847Z,80.00
2023-03-27T20:02:48.737Z,80.30
2023-03-27T20:05:15.684Z,80.30
2023-03-27T20:07:42.544Z,80.30
2023-03-27T20:10:09.998Z,81.10
2023-03-27T20:12:36.837Z,80.60
2023-03-27T20:15:11.900Z,80.50
2023-03-27T20:17:39.635Z,80.40
2023-03-27T20:20:08.728Z,80.60
2023-03-27T20:22:43.192Z,80.80
2023-03-27T20:25:18.780Z,81.50
2023-03-27T20:27:46.030Z,81.60
2023-03-27T20:30:14.677Z,81.00
2023-03-27T20:32:42.025Z,81.20
2023-03-27T20:35:20.466Z,81.50
2023-03-27T20:37:56.459Z,81.60
2023-03-27T20:40:25.030Z,81.50
2023-03-27T20:43:02.922Z,81.60
2023-03-27T20:45:31.135Z,82.00
2023-03-27T20:48:03.229Z,82.00
2023-03-27T20:50:31.754Z,82.40
2023-03-27T20:52:58.640Z,82.40
2023-03-27T20:55:33.684Z,82.70
2023-03-27T20:58:06.461Z,82.90
2023-03-27T21:00:37.411Z,83.50
2023-03-27T21:03:05.944Z,83.40
2023-03-27T21:05:34.643Z,83.30
2023-03-27T21:08:01.521Z,83.00
2023-03-27T21:10:28.469Z,82.90
2023-03-27T21:12:56.681Z,83.00
2023-03-27T21:15:23.920Z,83.50
2023-03-27T21:17:51.127Z,83.30
2023-03-27T21:20:18.531Z,83.40
2023-03-27T21:22:46.215Z,83.60
2023-03-27T21:25:13.070Z,83.40
2023-03-27T21:27:39.911Z,83.20
2023-03-27T21:30:07.823Z,83.60
2023-03-27T21:32:34.637Z,84.00
2023-03-27T21:35:01.516Z,84.00
2023-03-27T21:37:28.514Z,84.80
2023-03-27T21:39:55.912Z,84.30
2023-03-27T21:42:22.908Z,84.70
2023-03-27T21:44:53.710Z,84.80
2023-03-27T21:47:22.061Z,85.80
2023-03-27T21:49:48.974Z,85.20
2023-03-27T21:52:15.800Z,85.20
2023-03-27T21:54:50.025Z,85.10
2023-03-27T21:57:27.126Z,85.20
2023-03-27T21:59:53.982Z,84.50
2023-03-27T22:02:22.068Z,84.90
2023-03-27T22:04:49.083Z,84.80
2023-03-27T22:07:16.085Z,85.20
2023-03-27T22:09:45.954Z,85.10
2023-03-27T22:12:13.402Z,85.50
2023-03-27T22:14:40.415Z,85.20
2023-03-27T22:17:07.545Z,85.30
2023-03-27T22:19:34.413Z,85.60
2023-03-27T22:22:01.505Z,85.70
2023-03-27T22:24:28.859Z,85.90
2023-03-27T22:26:56.986Z,85.90
2023-03-27T22:29:23.914Z,86.30
2023-03-27T22:31:50.885Z,85.90
2023-03-27T22:34:18.007Z,86.40
2023-03-27T22:36:45.008Z,86.00
2023-03-27T22:39:11.810Z,85.80
2023-03-27T22:41:38.766Z,85.70
2023-03-27T22:44:05.824Z,85.70
2023-03-27T22:46:33.716Z,86.50
2023-03-27T22:49:00.776Z,85.60
2023-03-27T22:51:28.955Z,85.50
2023-03-27T22:53:55.911Z,85.70
2023-03-27T22:56:23.017Z,86.00
2023-03-27T22:58:49.913Z,86.30
2023-03-27T23:01:16.788Z,85.80
2023-03-27T23:03:43.783Z,86.10
2023-03-27T23:06:18.266Z,86.20
2023-03-27T23:08:45.365Z,86.50
2023-03-27T23:11:13.866Z,86.30
2023-03-27T23:13:41.114Z,85.90
2023-03-27T23:16:09.275Z,86.30
2023-03-27T23:18:36.720Z,86.10
2023-03-27T23:21:06.754Z,86.40
2023-03-27T23:23:36.982Z,86.60
2023-03-27T23:26:05.452Z,86.30
2023-03-27T23:28:38.157Z,86.40
2023-03-27T23:31:07.586Z,86.60
2023-03-27T23:33:38.816Z,86.30
2023-03-27T23:36:11.361Z,86.60
2023-03-27T23:38:40.413Z,86.60
2023-03-27T23:41:08.654Z,86.90
2023-03-27T23:43:36.379Z,87.00
2023-03-27T23:46:05.571Z,86.30
2023-03-27T23:48:32.464Z,86.20
2023-03-27T23:50:59.332Z,86.00
2023-03-27T23:53:28.238Z,86.40
2023-03-27T23:55:56.752Z,86.20
2023-03-27T23:58:28.510Z,85.90
